Nearby METAR Reports

 

KDWH - Houston/Dw Hooks, Texas, USA
Distance from station: WNW 3mi, 6km
Updated: 01/18/2022 6:53pm
Clear
Clear
 Wind from S
Wind: S 8 mph , 13 km/h
Temperature: 66°F , 19°C
Dew Point: 54°F , 12°C
Humidity: 64%
Barometer: 29.95 inHg , 1014.2 hPa
Clouds: Clear
Visibility: 10 miles , 16 km
2022/01/19 00:53 KDWH 190053Z 18007KT 10SM CLR 19/12 A2995 RMK AO2 SLP139 T01890117
KIAH - Houston/Intnl, Texas, USA
Distance from station: ESE 9mi, 14km
Updated: 01/18/2022 6:53pm
Partly cloudy
Partly cloudy
 Wind from S
Wind: S 7 mph , 11 km/h
Temperature: 66°F , 19°C
Dew Point: 54°F , 12°C
Humidity: 64%
Barometer: 29.95 inHg , 1014.2 hPa
Clouds: Partly cloudy
Visibility: 10 miles , 16 km
Cloud details: Few Clouds 15000 ft
Partly cloudy 25000 ft
2022/01/19 00:53 KIAH 190053Z 17006KT 10SM FEW150 SCT250 19/12 A2995 RMK AO2 SLP142 T01940117
 
KCXO - Conroe, Texas, USA
Distance from station: NNE 21mi, 34km
Updated: 01/18/2022 6:53pm
Clear
Clear
 Wind from SSE
Wind: SSE 8 mph , 13 km/h
Temperature: 63°F , 17°C
Dew Point: 52°F , 11°C
Humidity: 68%
Barometer: 29.94 inHg , 1013.9 hPa
Clouds: Clear
Visibility: 10 miles , 16 km
2022/01/19 00:53 KCXO 190053Z 16007KT 10SM CLR 17/11 A2994 RMK AO2 SLP138 T01670111
KMCJ - Houston/Univ, Texas, USA
Distance from station: SSE 24mi, 39km
Updated: 01/18/2022 6:55pm
Overcast
Overcast
 Wind from S
Wind: S 12 mph , 19 km/h, Gust: 21 mph , 33 km/h
Temperature: 66°F , 19°C
Dew Point: 55°F , 13°C
Humidity: 68%
Barometer: 29.94 inHg , 1013.9 hPa
Clouds: Overcast
Visibility: 10 miles , 16 km
Cloud details: Few Clouds 3000 ft
Few Clouds 3800 ft
Overcast 6000 ft
2022/01/19 00:55 KMCJ 190055Z AUTO 17010G18KT 10SM FEW030 FEW038 OVC060 19/13 A2994 RMK A01
 
KTME - Houston Exec, Texas, USA
Distance from station: SW 30mi, 48km
Updated: 01/18/2022 6:55pm
Partly cloudy
Partly cloudy
 Wind from S
Wind: S 8 mph , 13 km/h
Temperature: 64°F , 18°C
Dew Point: 55°F , 13°C
Humidity: 73%
Barometer: 29.96 inHg , 1014.6 hPa
Clouds: Partly cloudy
Visibility: 9 miles , 14 km
Cloud details: Partly cloudy 4200 ft
2022/01/19 00:55 KTME 190055Z AUTO 18007KT 9SM SCT042 18/13 A2996 RMK AO2
KHOU - Houston/Hobby, Texas, USA
Distance from station: SSE 32mi, 51km
Updated: 01/18/2022 6:53pm
Partly cloudy
Partly cloudy
 Wind from SSE
Wind: SSE 8 mph , 13 km/h
Temperature: 66°F , 19°C
Dew Point: 55°F , 13°C
Humidity: 68%
Barometer: 29.96 inHg , 1014.6 hPa
Clouds: Partly cloudy
Visibility: 10 miles , 16 km
Cloud details: Partly cloudy 25000 ft
2022/01/19 00:53 KHOU 190053Z 16007KT 10SM SCT250 19/13 A2996 RMK AO2 SLP151 T01940133 $
 
KSGR - Houston/Sugar La, Texas, USA
Distance from station: SSW 32mi, 51km
Updated: 01/18/2022 6:53pm
Few Clouds
Few Clouds
 Wind from S
Wind: S 8 mph , 13 km/h
Temperature: 64°F , 18°C
Dew Point: 54°F , 12°C
Humidity: 68%
Barometer: 29.95 inHg , 1014.2 hPa
Clouds: Few Clouds
Visibility: 10 miles , 16 km
Cloud details: Few Clouds 3900 ft
2022/01/19 00:53 KSGR 190053Z 18007KT 10SM FEW039 18/12 A2995 RMK AO2 SLP143 T01830117
K6R3 - Cleveland Muni, Texas, USA
Distance from station: NE 36mi, 58km
Updated: 01/18/2022 6:55pm
Clear
Clear
 Wind from S
Wind: S 9 mph , 15 km/h
Temperature: 64°F , 18°C
Dew Point: 55°F , 13°C
Humidity: 73%
Barometer: 29.97 inHg , 1014.9 hPa
Clouds: Clear
Visibility: 10 miles , 16 km
2022/01/19 00:55 K6R3 190055Z AUTO 17008KT 10SM CLR 18/13 A2997 RMK AO2 T01820134
 
KAXH - Houston/Southwst, Texas, USA
Distance from station: S 37mi, 60km
Updated: 01/18/2022 6:55pm
Clear
Clear
 Wind from S
Wind: S 3 mph , 6 km/h
Temperature: 64°F , 18°C
Dew Point: 55°F , 13°C
Humidity: 73%
Barometer: 29.97 inHg , 1014.9 hPa
Clouds: Clear
Visibility: 10 miles , 16 km
2022/01/19 00:55 KAXH 190055Z AUTO 17003KT 10SM CLR 18/13 A2997 RMK AO2 T01770131
KEFD - Houston/Ellingto, Texas, USA
Distance from station: SSE 37mi, 60km
Updated: 01/18/2022 5:50pm
NOT Current
Few Clouds
Few Clouds
 Wind from SSE
Wind: SSE 12 mph , 19 km/h, Gust: 17 mph , 28 km/h
Temperature: 66°F , 19°C
Dew Point: 55°F , 13°C
Humidity: 68%
Barometer: 29.96 inHg , 1014.6 hPa
Clouds: Few Clouds
Visibility: 10 miles , 16 km
Cloud details: Few Clouds 4000 ft
2022/01/18 23:50 KEFD 182350Z 15010G15KT 10SM FEW040 19/13 A2996
 
KLVJ - Houston, Texas, USA
Distance from station: SSE 40mi, 64km
Updated: 01/18/2022 6:53pm
Clear
Clear
 Wind from SSE
Wind: SSE 6 mph , 9 km/h
Temperature: 64°F , 18°C
Dew Point: 57°F , 14°C
Humidity: 78%
Barometer: 29.98 inHg , 1015.2 hPa
Clouds: Clear
Visibility: 10 miles , 16 km
2022/01/19 00:53 KLVJ 190053Z AUTO 15005KT 10SM CLR 18/14 A2998 RMK AO2 SLP150 T01830139
KUTS - Huntsville, Texas, USA
Distance from station: N 48mi, 78km
Updated: 01/18/2022 6:53pm
Clear
Clear
 Wind from S
Wind: S 9 mph , 15 km/h
Temperature: 68°F , 20°C
Dew Point: 52°F , 11°C
Humidity: 56%
Barometer: 29.91 inHg , 1012.9 hPa
Clouds: Clear
Visibility: 10 miles , 16 km
2022/01/19 00:53 KUTS 190053Z AUTO 18008KT 10SM CLR 20/11 A2991 RMK AO2 SLP126 T02000106